sensor_id;sensor_type;location;lat;lon;timestamp;P1;durP1;ratioP1;P2;durP2;ratioP2
71973;SDS011;59840;52.122;5.404;2023-12-22T00:02:19;10.32;;;0.93;;
71973;SDS011;59840;52.122;5.404;2023-12-22T00:04:46;6.00;;;0.60;;
71973;SDS011;59840;52.122;5.404;2023-12-22T00:07:13;3.92;;;0.40;;
71973;SDS011;59840;52.122;5.404;2023-12-22T00:09:39;3.80;;;0.30;;
71973;SDS011;59840;52.122;5.404;2023-12-22T00:12:06;3.97;;;0.30;;
71973;SDS011;59840;52.122;5.404;2023-12-22T00:14:33;6.13;;;0.60;;
71973;SDS011;59840;52.122;5.404;2023-12-22T00:16:59;3.27;;;0.20;;
71973;SDS011;59840;52.122;5.404;2023-12-22T00:19:26;1.15;;;0.20;;
71973;SDS011;59840;52.122;5.404;2023-12-22T00:21:52;3.65;;;0.40;;
71973;SDS011;59840;52.122;5.404;2023-12-22T00:24:19;2.70;;;0.30;;
71973;SDS011;59840;52.122;5.404;2023-12-22T00:26:45;2.70;;;0.32;;
71973;SDS011;59840;52.122;5.404;2023-12-22T00:29:12;1.57;;;0.10;;
71973;SDS011;59840;52.122;5.404;2023-12-22T00:31:39;1.58;;;0.10;;
71973;SDS011;59840;52.122;5.404;2023-12-22T00:34:05;3.33;;;0.20;;
71973;SDS011;59840;52.122;5.404;2023-12-22T00:36:32;0.85;;;0.00;;
71973;SDS011;59840;52.122;5.404;2023-12-22T00:38:59;4.50;;;0.10;;
71973;SDS011;59840;52.122;5.404;2023-12-22T00:41:25;4.40;;;0.20;;
71973;SDS011;59840;52.122;5.404;2023-12-22T00:43:52;3.65;;;0.55;;
71973;SDS011;59840;52.122;5.404;2023-12-22T00:46:19;4.75;;;0.32;;
71973;SDS011;59840;52.122;5.404;2023-12-22T00:48:46;4.15;;;0.30;;
71973;SDS011;59840;52.122;5.404;2023-12-22T00:51:13;2.60;;;0.10;;
71973;SDS011;59840;52.122;5.404;2023-12-22T00:53:40;8.63;;;0.30;;
71973;SDS011;59840;52.122;5.404;2023-12-22T00:56:06;4.93;;;0.60;;
71973;SDS011;59840;52.122;5.404;2023-12-22T00:58:33;3.60;;;0.20;;
71973;SDS011;59840;52.122;5.404;2023-12-22T01:00:59;2.50;;;0.30;;
71973;SDS011;59840;52.122;5.404;2023-12-22T01:03:26;4.57;;;0.38;;
71973;SDS011;59840;52.122;5.404;2023-12-22T01:05:53;2.03;;;0.20;;
71973;SDS011;59840;52.122;5.404;2023-12-22T01:08:20;6.30;;;0.52;;
71973;SDS011;59840;52.122;5.404;2023-12-22T01:10:46;4.50;;;0.50;;
71973;SDS011;59840;52.122;5.404;2023-12-22T01:13:14;1.98;;;0.20;;
71973;SDS011;59840;52.122;5.404;2023-12-22T01:15:41;1.77;;;0.25;;
71973;SDS011;59840;52.122;5.404;2023-12-22T01:18:10;2.73;;;0.30;;
71973;SDS011;59840;52.122;5.404;2023-12-22T01:20:37;5.57;;;0.32;;
71973;SDS011;59840;52.122;5.404;2023-12-22T01:23:04;2.95;;;0.20;;
71973;SDS011;59840;52.122;5.404;2023-12-22T01:25:31;6.35;;;0.52;;
71973;SDS011;59840;52.122;5.404;2023-12-22T01:27:57;6.13;;;0.20;;
71973;SDS011;59840;52.122;5.404;2023-12-22T01:30:24;4.77;;;0.30;;
71973;SDS011;59840;52.122;5.404;2023-12-22T01:32:50;4.80;;;0.43;;
71973;SDS011;59840;52.122;5.404;2023-12-22T01:35:17;4.57;;;0.28;;
71973;SDS011;59840;52.122;5.404;2023-12-22T01:37:43;5.43;;;0.45;;
71973;SDS011;59840;52.122;5.404;2023-12-22T01:40:10;3.97;;;0.50;;
71973;SDS011;59840;52.122;5.404;2023-12-22T01:42:37;6.97;;;0.50;;
71973;SDS011;59840;52.122;5.404;2023-12-22T01:45:04;6.70;;;0.30;;
71973;SDS011;59840;52.122;5.404;2023-12-22T01:47:32;12.52;;;0.57;;
71973;SDS011;59840;52.122;5.404;2023-12-22T01:49:59;4.75;;;0.35;;
71973;SDS011;59840;52.122;5.404;2023-12-22T01:52:26;5.40;;;0.30;;
71973;SDS011;59840;52.122;5.404;2023-12-22T01:54:53;6.23;;;0.50;;
71973;SDS011;59840;52.122;5.404;2023-12-22T01:57:21;7.57;;;0.80;;
71973;SDS011;59840;52.122;5.404;2023-12-22T01:59:48;5.93;;;0.60;;
71973;SDS011;59840;52.122;5.404;2023-12-22T02:02:16;4.55;;;0.40;;
71973;SDS011;59840;52.122;5.404;2023-12-22T02:04:43;5.35;;;0.73;;
71973;SDS011;59840;52.122;5.404;2023-12-22T02:07:11;6.13;;;0.50;;
71973;SDS011;59840;52.122;5.404;2023-12-22T02:09:38;6.13;;;0.57;;
71973;SDS011;59840;52.122;5.404;2023-12-22T02:12:05;8.48;;;0.65;;
71973;SDS011;59840;52.122;5.404;2023-12-22T02:14:31;3.28;;;0.52;;
71973;SDS011;59840;52.122;5.404;2023-12-22T02:19:51;5.77;;;0.50;;
71973;SDS011;59840;52.122;5.404;2023-12-22T02:22:19;5.53;;;0.50;;
71973;SDS011;59840;52.122;5.404;2023-12-22T02:24:47;4.18;;;0.50;;
71973;SDS011;59840;52.122;5.404;2023-12-22T02:27:16;6.50;;;0.47;;
71973;SDS011;59840;52.122;5.404;2023-12-22T02:32:41;11.57;;;0.40;;
71973;SDS011;59840;52.122;5.404;2023-12-22T02:35:10;8.77;;;0.95;;
71973;SDS011;59840;52.122;5.404;2023-12-22T02:37:40;5.90;;;0.40;;
71973;SDS011;59840;52.122;5.404;2023-12-22T02:40:10;11.02;;;0.93;;
71973;SDS011;59840;52.122;5.404;2023-12-22T02:42:37;9.30;;;0.80;;
71973;SDS011;59840;52.122;5.404;2023-12-22T02:45:05;11.90;;;0.77;;
71973;SDS011;59840;52.122;5.404;2023-12-22T02:47:32;13.90;;;1.10;;
71973;SDS011;59840;52.122;5.404;2023-12-22T02:49:59;11.80;;;0.93;;
71973;SDS011;59840;52.122;5.404;2023-12-22T02:52:26;7.95;;;0.70;;
71973;SDS011;59840;52.122;5.404;2023-12-22T02:54:52;5.90;;;0.57;;
71973;SDS011;59840;52.122;5.404;2023-12-22T02:57:19;14.07;;;1.40;;
71973;SDS011;59840;52.122;5.404;2023-12-22T02:59:45;9.95;;;1.25;;
71973;SDS011;59840;52.122;5.404;2023-12-22T03:02:12;10.52;;;1.67;;
71973;SDS011;59840;52.122;5.404;2023-12-22T03:04:38;12.90;;;1.40;;
71973;SDS011;59840;52.122;5.404;2023-12-22T03:07:05;11.60;;;1.27;;
71973;SDS011;59840;52.122;5.404;2023-12-22T03:09:32;12.93;;;1.03;;
71973;SDS011;59840;52.122;5.404;2023-12-22T03:12:04;7.28;;;1.35;;
71973;SDS011;59840;52.122;5.404;2023-12-22T03:14:32;14.75;;;1.15;;
71973;SDS011;59840;52.122;5.404;2023-12-22T03:16:59;9.60;;;1.00;;
71973;SDS011;59840;52.122;5.404;2023-12-22T03:19:27;13.27;;;1.40;;
71973;SDS011;59840;52.122;5.404;2023-12-22T03:21:53;16.07;;;1.83;;
71973;SDS011;59840;52.122;5.404;2023-12-22T03:24:20;14.70;;;1.60;;
71973;SDS011;59840;52.122;5.404;2023-12-22T03:26:50;12.25;;;1.25;;
71973;SDS011;59840;52.122;5.404;2023-12-22T03:29:17;12.55;;;0.93;;
71973;SDS011;59840;52.122;5.404;2023-12-22T03:31:44;8.75;;;1.15;;
71973;SDS011;59840;52.122;5.404;2023-12-22T03:34:12;5.00;;;0.90;;
71973;SDS011;59840;52.122;5.404;2023-12-22T03:36:39;10.88;;;1.00;;
71973;SDS011;59840;52.122;5.404;2023-12-22T03:39:05;12.98;;;1.60;;
71973;SDS011;59840;52.122;5.404;2023-12-22T03:41:32;12.60;;;1.20;;
71973;SDS011;59840;52.122;5.404;2023-12-22T03:43:59;7.47;;;0.60;;
71973;SDS011;59840;52.122;5.404;2023-12-22T03:46:25;4.50;;;0.43;;
71973;SDS011;59840;52.122;5.404;2023-12-22T03:48:52;9.43;;;0.80;;
71973;SDS011;59840;52.122;5.404;2023-12-22T03:51:19;10.32;;;1.08;;
71973;SDS011;59840;52.122;5.404;2023-12-22T03:53:45;7.05;;;0.65;;
71973;SDS011;59840;52.122;5.404;2023-12-22T03:56:12;6.30;;;0.30;;
71973;SDS011;59840;52.122;5.404;2023-12-22T03:58:38;7.40;;;0.47;;
71973;SDS011;59840;52.122;5.404;2023-12-22T04:01:05;7.45;;;0.55;;
71973;SDS011;59840;52.122;5.404;2023-12-22T04:03:34;5.30;;;0.55;;
71973;SDS011;59840;52.122;5.404;2023-12-22T04:06:01;3.15;;;0.17;;
71973;SDS011;59840;52.122;5.404;2023-12-22T04:08:31;4.53;;;0.13;;
71973;SDS011;59840;52.122;5.404;2023-12-22T04:10:57;6.33;;;0.17;;
71973;SDS011;59840;52.122;5.404;2023-12-22T04:13:24;5.47;;;0.47;;
71973;SDS011;59840;52.122;5.404;2023-12-22T04:15:51;4.60;;;0.40;;
71973;SDS011;59840;52.122;5.404;2023-12-22T04:18:17;3.78;;;0.50;;
71973;SDS011;59840;52.122;5.404;2023-12-22T04:20:44;2.65;;;0.32;;
71973;SDS011;59840;52.122;5.404;2023-12-22T04:23:11;7.60;;;0.57;;
71973;SDS011;59840;52.122;5.404;2023-12-22T04:25:37;4.43;;;0.40;;
71973;SDS011;59840;52.122;5.404;2023-12-22T04:28:04;6.25;;;0.40;;
71973;SDS011;59840;52.122;5.404;2023-12-22T04:30:30;4.40;;;0.50;;
71973;SDS011;59840;52.122;5.404;2023-12-22T04:32:59;5.70;;;0.90;;
71973;SDS011;59840;52.122;5.404;2023-12-22T04:35:26;9.57;;;0.40;;
71973;SDS011;59840;52.122;5.404;2023-12-22T04:37:53;7.72;;;0.52;;
71973;SDS011;59840;52.122;5.404;2023-12-22T04:40:20;5.43;;;0.68;;
71973;SDS011;59840;52.122;5.404;2023-12-22T04:42:46;5.07;;;0.43;;
71973;SDS011;59840;52.122;5.404;2023-12-22T04:45:13;7.88;;;0.50;;
71973;SDS011;59840;52.122;5.404;2023-12-22T04:47:40;3.73;;;0.30;;
71973;SDS011;59840;52.122;5.404;2023-12-22T04:50:06;6.85;;;0.60;;
71973;SDS011;59840;52.122;5.404;2023-12-22T04:52:33;14.93;;;1.40;;
71973;SDS011;59840;52.122;5.404;2023-12-22T04:55:00;8.48;;;0.50;;
71973;SDS011;59840;52.122;5.404;2023-12-22T04:57:27;7.90;;;0.75;;
71973;SDS011;59840;52.122;5.404;2023-12-22T04:59:53;7.47;;;1.00;;
71973;SDS011;59840;52.122;5.404;2023-12-22T05:02:20;9.82;;;1.15;;
71973;SDS011;59840;52.122;5.404;2023-12-22T05:04:46;3.03;;;0.55;;
71973;SDS011;59840;52.122;5.404;2023-12-22T05:07:13;6.75;;;0.70;;
71973;SDS011;59840;52.122;5.404;2023-12-22T05:09:41;8.75;;;0.70;;
71973;SDS011;59840;52.122;5.404;2023-12-22T05:12:08;13.13;;;1.30;;
71973;SDS011;59840;52.122;5.404;2023-12-22T05:14:35;10.10;;;0.82;;
71973;SDS011;59840;52.122;5.404;2023-12-22T05:17:01;11.73;;;1.15;;
71973;SDS011;59840;52.122;5.404;2023-12-22T05:19:28;7.10;;;0.75;;
71973;SDS011;59840;52.122;5.404;2023-12-22T05:21:54;5.15;;;0.60;;
71973;SDS011;59840;52.122;5.404;2023-12-22T05:24:23;8.43;;;0.90;;
71973;SDS011;59840;52.122;5.404;2023-12-22T05:26:49;9.13;;;0.60;;
71973;SDS011;59840;52.122;5.404;2023-12-22T05:29:16;11.88;;;0.90;;
71973;SDS011;59840;52.122;5.404;2023-12-22T05:31:42;17.98;;;1.98;;
71973;SDS011;59840;52.122;5.404;2023-12-22T05:34:09;8.75;;;1.20;;
71973;SDS011;59840;52.122;5.404;2023-12-22T05:36:36;7.40;;;0.90;;
71973;SDS011;59840;52.122;5.404;2023-12-22T05:39:03;9.15;;;0.85;;
71973;SDS011;59840;52.122;5.404;2023-12-22T05:41:30;4.07;;;0.35;;
71973;SDS011;59840;52.122;5.404;2023-12-22T05:44:00;6.57;;;0.50;;
71973;SDS011;59840;52.122;5.404;2023-12-22T05:46:27;7.57;;;0.77;;
71973;SDS011;59840;52.122;5.404;2023-12-22T05:48:53;7.17;;;0.70;;
71973;SDS011;59840;52.122;5.404;2023-12-22T05:51:24;12.57;;;1.40;;
71973;SDS011;59840;52.122;5.404;2023-12-22T05:53:51;7.90;;;0.70;;
71973;SDS011;59840;52.122;5.404;2023-12-22T05:56:20;7.35;;;0.57;;
71973;SDS011;59840;52.122;5.404;2023-12-22T05:58:48;8.65;;;1.48;;
71973;SDS011;59840;52.122;5.404;2023-12-22T06:01:18;6.77;;;0.60;;
71973;SDS011;59840;52.122;5.404;2023-12-22T06:03:48;9.68;;;0.80;;
71973;SDS011;59840;52.122;5.404;2023-12-22T06:06:14;14.00;;;1.52;;
71973;SDS011;59840;52.122;5.404;2023-12-22T06:08:41;7.63;;;0.70;;
71973;SDS011;59840;52.122;5.404;2023-12-22T06:11:08;13.02;;;0.70;;
71973;SDS011;59840;52.122;5.404;2023-12-22T06:13:34;5.93;;;0.70;;
71973;SDS011;59840;52.122;5.404;2023-12-22T06:16:01;5.22;;;0.55;;
71973;SDS011;59840;52.122;5.404;2023-12-22T06:18:27;4.20;;;0.60;;
71973;SDS011;59840;52.122;5.404;2023-12-22T06:20:54;5.03;;;0.80;;
71973;SDS011;59840;52.122;5.404;2023-12-22T06:23:21;8.95;;;1.55;;
71973;SDS011;59840;52.122;5.404;2023-12-22T06:25:47;9.57;;;1.00;;
71973;SDS011;59840;52.122;5.404;2023-12-22T06:28:14;6.88;;;1.08;;
71973;SDS011;59840;52.122;5.404;2023-12-22T06:30:43;15.38;;;1.25;;
71973;SDS011;59840;52.122;5.404;2023-12-22T06:33:10;7.35;;;0.60;;
71973;SDS011;59840;52.122;5.404;2023-12-22T06:35:37;8.13;;;0.80;;
71973;SDS011;59840;52.122;5.404;2023-12-22T06:38:07;7.97;;;0.93;;
71973;SDS011;59840;52.122;5.404;2023-12-22T06:40:34;6.90;;;1.20;;
71973;SDS011;59840;52.122;5.404;2023-12-22T06:43:01;9.40;;;0.77;;
71973;SDS011;59840;52.122;5.404;2023-12-22T06:45:27;7.53;;;1.35;;
71973;SDS011;59840;52.122;5.404;2023-12-22T06:47:54;11.30;;;1.52;;
71973;SDS011;59840;52.122;5.404;2023-12-22T06:50:22;8.47;;;1.43;;
71973;SDS011;59840;52.122;5.404;2023-12-22T06:52:48;12.25;;;1.63;;
71973;SDS011;59840;52.122;5.404;2023-12-22T06:55:16;11.77;;;1.33;;
71973;SDS011;59840;52.122;5.404;2023-12-22T06:57:43;11.85;;;1.15;;
71973;SDS011;59840;52.122;5.404;2023-12-22T07:00:11;12.43;;;1.02;;
71973;SDS011;59840;52.122;5.404;2023-12-22T07:02:38;12.73;;;1.13;;
71973;SDS011;59840;52.122;5.404;2023-12-22T07:07:53;6.15;;;1.17;;
71973;SDS011;59840;52.122;5.404;2023-12-22T07:10:20;8.65;;;1.00;;
71973;SDS011;59840;52.122;5.404;2023-12-22T07:12:46;11.68;;;1.73;;
71973;SDS011;59840;52.122;5.404;2023-12-22T07:15:13;11.60;;;0.90;;
71973;SDS011;59840;52.122;5.404;2023-12-22T07:17:39;12.40;;;1.38;;
71973;SDS011;59840;52.122;5.404;2023-12-22T07:20:06;11.23;;;1.23;;
71973;SDS011;59840;52.122;5.404;2023-12-22T07:22:33;13.27;;;1.40;;
71973;SDS011;59840;52.122;5.404;2023-12-22T07:24:59;16.10;;;1.67;;
71973;SDS011;59840;52.122;5.404;2023-12-22T07:27:26;14.80;;;1.70;;
71973;SDS011;59840;52.122;5.404;2023-12-22T07:29:54;13.60;;;1.10;;
71973;SDS011;59840;52.122;5.404;2023-12-22T07:32:20;15.48;;;1.55;;
71973;SDS011;59840;52.122;5.404;2023-12-22T07:34:47;12.85;;;1.30;;
71973;SDS011;59840;52.122;5.404;2023-12-22T07:37:13;9.38;;;1.73;;
71973;SDS011;59840;52.122;5.404;2023-12-22T07:39:40;11.87;;;1.07;;
71973;SDS011;59840;52.122;5.404;2023-12-22T07:42:08;15.00;;;1.73;;
71973;SDS011;59840;52.122;5.404;2023-12-22T07:44:34;14.65;;;1.48;;
71973;SDS011;59840;52.122;5.404;2023-12-22T07:47:01;13.13;;;1.40;;
71973;SDS011;59840;52.122;5.404;2023-12-22T07:49:29;14.43;;;1.73;;
71973;SDS011;59840;52.122;5.404;2023-12-22T07:51:57;13.43;;;0.97;;
71973;SDS011;59840;52.122;5.404;2023-12-22T07:54:24;8.95;;;1.02;;
71973;SDS011;59840;52.122;5.404;2023-12-22T07:56:52;6.88;;;0.82;;
71973;SDS011;59840;52.122;5.404;2023-12-22T07:59:18;10.60;;;0.90;;
71973;SDS011;59840;52.122;5.404;2023-12-22T08:01:56;9.45;;;1.58;;
71973;SDS011;59840;52.122;5.404;2023-12-22T08:04:23;13.30;;;2.07;;
71973;SDS011;59840;52.122;5.404;2023-12-22T08:06:49;14.93;;;1.77;;
71973;SDS011;59840;52.122;5.404;2023-12-22T08:09:16;12.77;;;1.65;;
71973;SDS011;59840;52.122;5.404;2023-12-22T08:11:43;10.02;;;1.10;;
71973;SDS011;59840;52.122;5.404;2023-12-22T08:14:12;16.38;;;1.60;;
71973;SDS011;59840;52.122;5.404;2023-12-22T08:16:39;17.33;;;1.80;;
71973;SDS011;59840;52.122;5.404;2023-12-22T08:19:06;16.80;;;2.03;;
71973;SDS011;59840;52.122;5.404;2023-12-22T08:21:33;7.68;;;1.58;;
71973;SDS011;59840;52.122;5.404;2023-12-22T08:24:11;19.92;;;1.95;;
71973;SDS011;59840;52.122;5.404;2023-12-22T08:26:47;17.20;;;1.38;;
71973;SDS011;59840;52.122;5.404;2023-12-22T08:29:14;12.27;;;1.30;;
71973;SDS011;59840;52.122;5.404;2023-12-22T08:31:42;13.23;;;2.30;;
71973;SDS011;59840;52.122;5.404;2023-12-22T08:34:10;10.40;;;1.30;;
71973;SDS011;59840;52.122;5.404;2023-12-22T08:36:37;6.15;;;0.70;;
71973;SDS011;59840;52.122;5.404;2023-12-22T08:39:04;7.55;;;1.20;;
71973;SDS011;59840;52.122;5.404;2023-12-22T08:41:34;5.67;;;0.73;;
71973;SDS011;59840;52.122;5.404;2023-12-22T08:44:04;3.88;;;0.60;;
71973;SDS011;59840;52.122;5.404;2023-12-22T08:46:32;6.00;;;0.82;;
71973;SDS011;59840;52.122;5.404;2023-12-22T08:48:59;8.77;;;1.05;;
71973;SDS011;59840;52.122;5.404;2023-12-22T08:51:26;7.55;;;0.77;;
71973;SDS011;59840;52.122;5.404;2023-12-22T08:53:54;8.30;;;1.40;;
71973;SDS011;59840;52.122;5.404;2023-12-22T08:56:21;4.53;;;0.70;;
71973;SDS011;59840;52.122;5.404;2023-12-22T08:58:48;10.60;;;1.35;;
71973;SDS011;59840;52.122;5.404;2023-12-22T09:01:18;6.43;;;0.85;;
71973;SDS011;59840;52.122;5.404;2023-12-22T09:03:45;12.98;;;0.82;;
71973;SDS011;59840;52.122;5.404;2023-12-22T09:06:16;6.53;;;0.63;;
71973;SDS011;59840;52.122;5.404;2023-12-22T09:08:44;9.95;;;0.93;;
71973;SDS011;59840;52.122;5.404;2023-12-22T09:11:11;7.40;;;1.23;;
71973;SDS011;59840;52.122;5.404;2023-12-22T09:13:39;15.55;;;1.05;;
71973;SDS011;59840;52.122;5.404;2023-12-22T09:16:05;5.78;;;0.63;;
71973;SDS011;59840;52.122;5.404;2023-12-22T09:18:32;12.57;;;1.33;;
71973;SDS011;59840;52.122;5.404;2023-12-22T09:21:00;4.15;;;0.60;;
71973;SDS011;59840;52.122;5.404;2023-12-22T09:23:27;5.80;;;0.93;;
71973;SDS011;59840;52.122;5.404;2023-12-22T09:25:53;5.80;;;0.75;;
71973;SDS011;59840;52.122;5.404;2023-12-22T09:28:20;3.05;;;0.30;;
71973;SDS011;59840;52.122;5.404;2023-12-22T09:30:47;1.53;;;0.20;;
71973;SDS011;59840;52.122;5.404;2023-12-22T09:33:14;0.40;;;0.17;;
71973;SDS011;59840;52.122;5.404;2023-12-22T09:35:41;1.30;;;0.20;;
71973;SDS011;59840;52.122;5.404;2023-12-22T09:38:09;1.30;;;0.03;;
71973;SDS011;59840;52.122;5.404;2023-12-22T09:40:37;2.50;;;0.10;;
71973;SDS011;59840;52.122;5.404;2023-12-22T09:43:06;0.63;;;0.00;;
71973;SDS011;59840;52.122;5.404;2023-12-22T09:45:34;0.82;;;0.10;;
71973;SDS011;59840;52.122;5.404;2023-12-22T09:48:02;1.95;;;0.20;;
71973;SDS011;59840;52.122;5.404;2023-12-22T09:50:30;1.92;;;0.35;;
71973;SDS011;59840;52.122;5.404;2023-12-22T09:52:57;2.15;;;0.20;;
71973;SDS011;59840;52.122;5.404;2023-12-22T09:55:24;1.20;;;0.47;;
71973;SDS011;59840;52.122;5.404;2023-12-22T09:57:53;6.95;;;0.40;;
71973;SDS011;59840;52.122;5.404;2023-12-22T10:00:21;9.07;;;0.73;;
71973;SDS011;59840;52.122;5.404;2023-12-22T10:02:49;4.43;;;0.30;;
71973;SDS011;59840;52.122;5.404;2023-12-22T10:05:15;4.32;;;0.70;;
71973;SDS011;59840;52.122;5.404;2023-12-22T10:07:44;3.97;;;0.50;;
71973;SDS011;59840;52.122;5.404;2023-12-22T10:10:14;3.78;;;0.68;;
71973;SDS011;59840;52.122;5.404;2023-12-22T10:12:42;8.20;;;0.75;;
71973;SDS011;59840;52.122;5.404;2023-12-22T10:15:11;9.40;;;0.80;;
71973;SDS011;59840;52.122;5.404;2023-12-22T10:17:39;7.82;;;0.95;;
71973;SDS011;59840;52.122;5.404;2023-12-22T10:20:06;5.80;;;0.77;;
71973;SDS011;59840;52.122;5.404;2023-12-22T10:22:34;7.75;;;1.05;;
71973;SDS011;59840;52.122;5.404;2023-12-22T10:25:01;6.40;;;0.60;;
71973;SDS011;59840;52.122;5.404;2023-12-22T10:27:29;8.25;;;0.70;;
71973;SDS011;59840;52.122;5.404;2023-12-22T10:29:56;5.70;;;0.50;;
71973;SDS011;59840;52.122;5.404;2023-12-22T10:32:23;7.57;;;0.70;;
71973;SDS011;59840;52.122;5.404;2023-12-22T10:34:53;5.55;;;0.50;;
71973;SDS011;59840;52.122;5.404;2023-12-22T10:37:20;7.35;;;0.65;;
71973;SDS011;59840;52.122;5.404;2023-12-22T10:39:48;9.00;;;0.60;;
71973;SDS011;59840;52.122;5.404;2023-12-22T10:42:18;4.68;;;0.55;;
71973;SDS011;59840;52.122;5.404;2023-12-22T10:44:45;6.10;;;0.60;;
71973;SDS011;59840;52.122;5.404;2023-12-22T10:47:14;4.68;;;0.50;;
71973;SDS011;59840;52.122;5.404;2023-12-22T10:49:41;9.00;;;0.70;;
71973;SDS011;59840;52.122;5.404;2023-12-22T10:52:11;4.63;;;0.60;;
71973;SDS011;59840;52.122;5.404;2023-12-22T10:54:43;4.20;;;0.65;;
71973;SDS011;59840;52.122;5.404;2023-12-22T10:57:10;6.00;;;0.40;;
71973;SDS011;59840;52.122;5.404;2023-12-22T10:59:39;3.83;;;0.80;;
71973;SDS011;59840;52.122;5.404;2023-12-22T11:02:22;7.78;;;0.57;;
71973;SDS011;59840;52.122;5.404;2023-12-22T11:05:00;3.95;;;0.55;;
71973;SDS011;59840;52.122;5.404;2023-12-22T11:07:28;3.95;;;0.65;;
71973;SDS011;59840;52.122;5.404;2023-12-22T11:10:00;3.80;;;0.60;;
71973;SDS011;59840;52.122;5.404;2023-12-22T11:12:31;8.50;;;0.77;;
71973;SDS011;59840;52.122;5.404;2023-12-22T11:15:01;6.25;;;0.85;;
71973;SDS011;59840;52.122;5.404;2023-12-22T11:17:30;3.97;;;0.55;;
71973;SDS011;59840;52.122;5.404;2023-12-22T11:19:58;4.43;;;0.55;;
71973;SDS011;59840;52.122;5.404;2023-12-22T11:22:26;5.23;;;0.50;;
71973;SDS011;59840;52.122;5.404;2023-12-22T11:24:53;3.58;;;0.52;;
71973;SDS011;59840;52.122;5.404;2023-12-22T11:27:21;8.43;;;0.40;;
71973;SDS011;59840;52.122;5.404;2023-12-22T11:29:49;5.38;;;0.30;;
71973;SDS011;59840;52.122;5.404;2023-12-22T11:32:17;5.07;;;0.77;;
71973;SDS011;59840;52.122;5.404;2023-12-22T11:34:47;6.67;;;1.07;;
71973;SDS011;59840;52.122;5.404;2023-12-22T11:37:15;3.60;;;0.40;;
71973;SDS011;59840;52.122;5.404;2023-12-22T11:39:42;5.63;;;0.70;;
71973;SDS011;59840;52.122;5.404;2023-12-22T11:42:11;5.85;;;0.50;;
71973;SDS011;59840;52.122;5.404;2023-12-22T11:44:42;6.30;;;0.38;;
71973;SDS011;59840;52.122;5.404;2023-12-22T11:47:09;6.67;;;0.50;;
71973;SDS011;59840;52.122;5.404;2023-12-22T11:49:38;4.28;;;0.50;;
71973;SDS011;59840;52.122;5.404;2023-12-22T11:52:12;8.90;;;0.80;;
71973;SDS011;59840;52.122;5.404;2023-12-22T11:54:43;5.85;;;0.38;;
71973;SDS011;59840;52.122;5.404;2023-12-22T12:02:35;2.35;;;0.30;;
71973;SDS011;59840;52.122;5.404;2023-12-22T12:05:02;3.65;;;0.38;;
71973;SDS011;59840;52.122;5.404;2023-12-22T12:10:07;5.85;;;0.77;;
71973;SDS011;59840;52.122;5.404;2023-12-22T12:12:35;7.20;;;0.40;;
71973;SDS011;59840;52.122;5.404;2023-12-22T12:15:07;4.05;;;0.52;;
71973;SDS011;59840;52.122;5.404;2023-12-22T12:17:42;4.40;;;0.30;;
71973;SDS011;59840;52.122;5.404;2023-12-22T12:20:10;6.03;;;0.40;;
71973;SDS011;59840;52.122;5.404;2023-12-22T12:22:38;2.33;;;0.32;;
71973;SDS011;59840;52.122;5.404;2023-12-22T12:25:09;6.17;;;0.50;;
71973;SDS011;59840;52.122;5.404;2023-12-22T12:28:04;9.43;;;0.75;;
71973;SDS011;59840;52.122;5.404;2023-12-22T12:30:32;3.92;;;0.30;;
71973;SDS011;59840;52.122;5.404;2023-12-22T12:33:07;4.70;;;0.40;;
71973;SDS011;59840;52.122;5.404;2023-12-22T12:35:40;4.63;;;0.50;;
71973;SDS011;59840;52.122;5.404;2023-12-22T12:38:16;5.27;;;0.50;;
71973;SDS011;59840;52.122;5.404;2023-12-22T12:40:44;5.90;;;0.50;;
71973;SDS011;59840;52.122;5.404;2023-12-22T12:43:12;4.32;;;0.40;;
71973;SDS011;59840;52.122;5.404;2023-12-22T12:45:39;7.20;;;0.60;;
71973;SDS011;59840;52.122;5.404;2023-12-22T12:48:06;2.60;;;0.30;;
71973;SDS011;59840;52.122;5.404;2023-12-22T12:50:34;6.20;;;0.80;;
71973;SDS011;59840;52.122;5.404;2023-12-22T12:53:01;3.70;;;0.40;;
71973;SDS011;59840;52.122;5.404;2023-12-22T12:55:28;6.43;;;0.45;;
71973;SDS011;59840;52.122;5.404;2023-12-22T12:57:55;2.63;;;0.25;;
71973;SDS011;59840;52.122;5.404;2023-12-22T13:03:00;2.33;;;0.50;;
71973;SDS011;59840;52.122;5.404;2023-12-22T13:05:29;3.95;;;0.45;;
71973;SDS011;59840;52.122;5.404;2023-12-22T13:10:39;7.55;;;0.93;;
71973;SDS011;59840;52.122;5.404;2023-12-22T13:13:07;4.90;;;1.25;;
71973;SDS011;59840;52.122;5.404;2023-12-22T13:15:34;4.70;;;0.40;;
71973;SDS011;59840;52.122;5.404;2023-12-22T13:18:00;5.18;;;0.43;;
71973;SDS011;59840;52.122;5.404;2023-12-22T13:20:27;6.80;;;1.30;;
71973;SDS011;59840;52.122;5.404;2023-12-22T13:22:55;7.03;;;0.82;;
71973;SDS011;59840;52.122;5.404;2023-12-22T13:25:22;4.45;;;0.55;;
71973;SDS011;59840;52.122;5.404;2023-12-22T13:27:51;3.13;;;0.50;;
71973;SDS011;59840;52.122;5.404;2023-12-22T13:30:32;4.65;;;0.40;;
71973;SDS011;59840;52.122;5.404;2023-12-22T13:33:02;3.88;;;0.30;;
71973;SDS011;59840;52.122;5.404;2023-12-22T13:35:29;6.40;;;0.70;;
71973;SDS011;59840;52.122;5.404;2023-12-22T13:37:56;4.22;;;0.30;;
71973;SDS011;59840;52.122;5.404;2023-12-22T13:40:25;5.77;;;0.20;;
71973;SDS011;59840;52.122;5.404;2023-12-22T13:42:55;5.95;;;0.30;;
71973;SDS011;59840;52.122;5.404;2023-12-22T13:45:26;3.40;;;0.30;;
71973;SDS011;59840;52.122;5.404;2023-12-22T13:47:53;4.57;;;0.60;;
71973;SDS011;59840;52.122;5.404;2023-12-22T13:50:20;3.55;;;0.52;;
71973;SDS011;59840;52.122;5.404;2023-12-22T13:52:50;4.93;;;0.40;;
71973;SDS011;59840;52.122;5.404;2023-12-22T13:55:18;4.13;;;0.35;;
71973;SDS011;59840;52.122;5.404;2023-12-22T13:57:45;2.78;;;0.30;;
71973;SDS011;59840;52.122;5.404;2023-12-22T14:02:46;6.20;;;0.80;;
71973;SDS011;59840;52.122;5.404;2023-12-22T14:05:13;8.67;;;0.77;;
71973;SDS011;59840;52.122;5.404;2023-12-22T14:07:39;5.78;;;0.93;;
71973;SDS011;59840;52.122;5.404;2023-12-22T14:10:06;5.07;;;0.50;;
71973;SDS011;59840;52.122;5.404;2023-12-22T14:12:33;7.05;;;1.20;;
71973;SDS011;59840;52.122;5.404;2023-12-22T14:17:32;8.07;;;0.80;;
71973;SDS011;59840;52.122;5.404;2023-12-22T14:19:59;6.75;;;0.80;;
71973;SDS011;59840;52.122;5.404;2023-12-22T14:22:26;10.88;;;0.98;;
71973;SDS011;59840;52.122;5.404;2023-12-22T14:24:54;9.73;;;0.93;;
71973;SDS011;59840;52.122;5.404;2023-12-22T14:27:22;10.68;;;1.05;;
71973;SDS011;59840;52.122;5.404;2023-12-22T14:29:51;10.63;;;1.47;;
71973;SDS011;59840;52.122;5.404;2023-12-22T14:32:18;10.23;;;0.85;;
71973;SDS011;59840;52.122;5.404;2023-12-22T14:34:47;7.75;;;0.75;;
71973;SDS011;59840;52.122;5.404;2023-12-22T14:37:14;8.23;;;1.10;;
71973;SDS011;59840;52.122;5.404;2023-12-22T14:39:44;6.82;;;0.50;;
71973;SDS011;59840;52.122;5.404;2023-12-22T14:42:12;6.47;;;0.80;;
71973;SDS011;59840;52.122;5.404;2023-12-22T14:44:39;7.18;;;0.73;;
71973;SDS011;59840;52.122;5.404;2023-12-22T14:47:06;6.53;;;0.63;;
71973;SDS011;59840;52.122;5.404;2023-12-22T14:49:38;6.55;;;1.08;;
71973;SDS011;59840;52.122;5.404;2023-12-22T14:52:05;5.53;;;0.85;;
71973;SDS011;59840;52.122;5.404;2023-12-22T14:54:32;7.13;;;0.90;;
71973;SDS011;59840;52.122;5.404;2023-12-22T14:56:58;10.15;;;0.90;;
71973;SDS011;59840;52.122;5.404;2023-12-22T14:59:25;6.28;;;0.80;;
71973;SDS011;59840;52.122;5.404;2023-12-22T15:01:52;5.32;;;0.60;;
71973;SDS011;59840;52.122;5.404;2023-12-22T15:04:18;6.93;;;0.68;;
71973;SDS011;59840;52.122;5.404;2023-12-22T15:06:47;8.30;;;0.60;;
71973;SDS011;59840;52.122;5.404;2023-12-22T15:09:26;4.15;;;0.52;;
71973;SDS011;59840;52.122;5.404;2023-12-22T15:11:52;9.20;;;0.40;;
71973;SDS011;59840;52.122;5.404;2023-12-22T15:14:21;9.23;;;0.60;;
71973;SDS011;59840;52.122;5.404;2023-12-22T15:16:48;6.93;;;0.60;;